Time;durP1;ratioP1;P1;durP2;ratioP2;P2;SDS_P1;SDS_P2;PMS_P1;PMS_P2;Temp;Humidity;BMP_temperature;BMP_pressure;BME280_temperature;BME280_humidity;BME280_pressure;Samples;Min_cycle;Max_cycle;Signal;HPM_P1;HPM_P2
2022/03/14 00:00:40;;;;;;;;;;;;;;;;;;5134325;27;20273;-77
2022/03/14 00:03:05;;;;;;;;;;;;;;;;;;5135039;27;19942;-78
2022/03/14 00:05:31;;;;;;;;;;;;;;;;;;5135376;27;20384;-77
2022/03/14 00:07:58;;;;;;;;;;;;;;;;;;5135237;27;19922;-77
2022/03/14 00:10:24;;;;;;;;;;;;;;;;;;5133928;27;20467;-77
2022/03/14 00:12:51;;;;;;;;;;;;;;;;;;5123224;27;19915;-78
2022/03/14 00:15:17;;;;;;;;;;;;;;;;;;5113902;28;19951;-78
2022/03/14 00:17:47;;;;;;;;;;;;;;;;;;5093092;28;19923;-77
2022/03/14 00:20:13;;;;;;;;;;;;;;;;;;5097012;28;20285;-78
2022/03/14 00:22:40;;;;;;;;;;;;;;;;;;5098234;28;19916;-77
2022/03/14 00:25:07;;;;;;;;;;;;;;;;;;5098502;28;19946;-78
2022/03/14 00:27:35;;;;;;;;;;;;;;;;;;5099312;28;19939;-77
2022/03/14 00:30:00;;;;;;;;;;;;;;;;;;5098650;28;19927;-77
2022/03/14 00:32:26;;;;;;;;;;;;;;;;;;5098365;28;19924;-77
2022/03/14 00:34:51;;;;;;;;;;;;;;;;;;5099069;28;19941;-78
2022/03/14 00:37:17;;;;;;;;;;;;;;;;;;5099332;28;20065;-77
2022/03/14 00:39:42;;;;;;;;;;;;;;;;;;5099519;28;19971;-77
2022/03/14 00:42:07;;;;;;;;;;;;;;;;;;5105185;28;19977;-77
2022/03/14 00:44:33;;;;;;;;;;;;;;;;;;5118335;28;20431;-78
2022/03/14 00:46:58;;;;;;;;;;;;;;;;;;5118602;28;19916;-78
2022/03/14 00:49:23;;;;;;;;;;;;;;;;;;5100528;28;20185;-77
2022/03/14 00:51:49;;;;;;;;;;;;;;;;;;5118576;28;19920;-77
2022/03/14 00:54:14;;;;;;;;;;;;;;;;;;5115427;28;19986;-77
2022/03/14 00:56:40;;;;;;;;;;;;;;;;;;5098159;28;19913;-77
2022/03/14 00:59:05;;;;;;;;;;;;;;;;;;5098643;28;19962;-77
2022/03/14 01:01:30;;;;;;;;;;;;;;;;;;5096971;28;19954;-77
2022/03/14 01:03:56;;;;;;;;;;;;;;;;;;5098112;28;19968;-77
2022/03/14 01:06:21;;;;;;;;;;;;;;;;;;5098137;28;19916;-77
2022/03/14 01:08:47;;;;;;;;;;;;;;;;;;5098065;28;19922;-77
2022/03/14 01:11:12;;;;;;;;;;;;;;;;;;5113639;28;20290;-78
2022/03/14 01:13:37;;;;;;;;;;;;;;;;;;5099055;28;20052;-78
2022/03/14 01:16:05;;;;;;;;;;;;;;;;;;5116506;28;19923;-78
2022/03/14 01:18:31;;;;;;;;;;;;;;;;;;5117010;28;19915;-77
2022/03/14 01:20:56;;;;;;;;;;;;;;;;;;5116819;28;19916;-78
2022/03/14 01:23:22;;;;;;;;;;;;;;;;;;5116573;28;19920;-77
2022/03/14 01:25:47;;;;;;;;;;;;;;;;;;5116741;28;20002;-77
2022/03/14 01:28:13;;;;;;;;;;;;;;;;;;5116976;28;20265;-77
2022/03/14 01:30:43;;;;;;;;;;;;;;;;;;5115940;27;19920;-77
2022/03/14 01:33:09;;;;;;;;;;;;;;;;;;5115031;28;20567;-77
2022/03/14 01:35:35;;;;;;;;;;;;;;;;;;5116453;28;19920;-78
2022/03/14 01:38:01;;;;;;;;;;;;;;;;;;5116517;28;19955;-77
2022/03/14 01:40:28;;;;;;;;;;;;;;;;;;5116485;28;20369;-77
2022/03/14 01:42:53;;;;;;;;;;;;;;;;;;5116087;28;20385;-77
2022/03/14 01:45:19;;;;;;;;;;;;;;;;;;5115841;28;19916;-77
2022/03/14 01:47:45;;;;;;;;;;;;;;;;;;5115777;28;20270;-77
2022/03/14 01:50:11;;;;;;;;;;;;;;;;;;5115472;27;20262;-77
2022/03/14 01:52:36;;;;;;;;;;;;;;;;;;5116351;28;19972;-77
2022/03/14 01:55:02;;;;;;;;;;;;;;;;;;5116348;27;20331;-77
2022/03/14 01:57:29;;;;;;;;;;;;;;;;;;5115509;28;19931;-77
2022/03/14 01:59:55;;;;;;;;;;;;;;;;;;5116027;28;19942;-76
2022/03/14 02:02:22;;;;;;;;;;;;;;;;;;5115471;28;19920;-77
2022/03/14 02:04:48;;;;;;;;;;;;;;;;;;5116054;28;19915;-77
2022/03/14 02:07:14;;;;;;;;;;;;;;;;;;5115637;28;20434;-77
2022/03/14 02:09:39;;;;;;;;;;;;;;;;;;5115601;28;19916;-77
2022/03/14 02:12:09;;;;;;;;;;;;;;;;;;5115688;28;22022;-77
2022/03/14 02:14:39;;;;;;;;;;;;;;;;;;5115744;28;20366;-76
2022/03/14 02:17:04;;;;;;;;;;;;;;;;;;5115357;28;20014;-77
2022/03/14 02:19:30;;;;;;;;;;;;;;;;;;5119574;27;20388;-77
2022/03/14 02:21:55;;;;;;;;;;;;;;;;;;5135071;27;20280;-77
2022/03/14 02:24:21;;;;;;;;;;;;;;;;;;5122775;27;20270;-78
2022/03/14 02:26:46;;;;;;;;;;;;;;;;;;5097594;28;20266;-78
2022/03/14 02:29:12;;;;;;;;;;;;;;;;;;5115410;28;20038;-78
2022/03/14 02:31:37;;;;;;;;;;;;;;;;;;5115192;28;19919;-77
2022/03/14 02:34:07;;;;;;;;;;;;;;;;;;5115259;28;19960;-77
2022/03/14 02:36:32;;;;;;;;;;;;;;;;;;5115210;28;19923;-78
2022/03/14 02:38:58;;;;;;;;;;;;;;;;;;5114250;28;19915;-77
2022/03/14 02:41:23;;;;;;;;;;;;;;;;;;5113270;28;20065;-77
2022/03/14 02:43:55;;;;;;;;;;;;;;;;;;5115256;28;19915;-77
2022/03/14 02:46:21;;;;;;;;;;;;;;;;;;5114795;27;19939;-78
2022/03/14 02:48:46;;;;;;;;;;;;;;;;;;5115457;27;19912;-77
2022/03/14 02:51:12;;;;;;;;;;;;;;;;;;5115137;28;20011;-77
2022/03/14 02:53:37;;;;;;;;;;;;;;;;;;5114773;28;19922;-76
2022/03/14 02:56:02;;;;;;;;;;;;;;;;;;5115085;28;19916;-77
2022/03/14 02:58:32;;;;;;;;;;;;;;;;;;5113919;28;20010;-77
2022/03/14 03:00:57;;;;;;;;;;;;;;;;;;5113038;28;19963;-78
2022/03/14 03:03:23;;;;;;;;;;;;;;;;;;5114721;28;20001;-77
2022/03/14 03:05:48;;;;;;;;;;;;;;;;;;5114793;28;20002;-78
2022/03/14 03:08:14;;;;;;;;;;;;;;;;;;5114583;28;19915;-78
2022/03/14 03:10:41;;;;;;;;;;;;;;;;;;5114708;28;19919;-77
2022/03/14 03:13:09;;;;;;;;;;;;;;;;;;5128627;27;20010;-77
2022/03/14 03:15:37;;;;;;;;;;;;;;;;;;5117178;27;20332;-77
2022/03/14 03:18:03;;;;;;;;;;;;;;;;;;5118340;28;19915;-78
2022/03/14 03:20:28;;;;;;;;;;;;;;;;;;5116133;28;19916;-76
2022/03/14 03:22:54;;;;;;;;;;;;;;;;;;5114483;28;20388;-77
2022/03/14 03:25:19;;;;;;;;;;;;;;;;;;5114503;28;19915;-77
2022/03/14 03:27:45;;;;;;;;;;;;;;;;;;5113336;28;19923;-77
2022/03/14 03:30:11;;;;;;;;;;;;;;;;;;5114666;28;20362;-77
2022/03/14 03:32:36;;;;;;;;;;;;;;;;;;5114296;27;19920;-78
2022/03/14 03:35:02;;;;;;;;;;;;;;;;;;5114345;28;19923;-77
2022/03/14 03:37:27;;;;;;;;;;;;;;;;;;5115652;28;19916;-77
2022/03/14 03:39:52;;;;;;;;;;;;;;;;;;5115213;28;19918;-77
2022/03/14 03:42:18;;;;;;;;;;;;;;;;;;5114411;28;20385;-77
2022/03/14 03:44:43;;;;;;;;;;;;;;;;;;5105677;28;19956;-77
2022/03/14 03:47:09;;;;;;;;;;;;;;;;;;5093842;28;20288;-77
2022/03/14 03:49:34;;;;;;;;;;;;;;;;;;5094675;28;19953;-77
2022/03/14 03:52:00;;;;;;;;;;;;;;;;;;5094136;28;19920;-77
2022/03/14 03:54:25;;;;;;;;;;;;;;;;;;5098766;28;19923;-77
2022/03/14 03:56:52;;;;;;;;;;;;;;;;;;5100041;28;19948;-77
2022/03/14 03:59:17;;;;;;;;;;;;;;;;;;5102522;28;19916;-77
2022/03/14 04:01:43;;;;;;;;;;;;;;;;;;5100514;28;19919;-78
2022/03/14 04:04:09;;;;;;;;;;;;;;;;;;5097422;28;19955;-78
2022/03/14 04:06:35;;;;;;;;;;;;;;;;;;5097834;28;20010;-77
2022/03/14 04:09:01;;;;;;;;;;;;;;;;;;5098345;28;19962;-77
2022/03/14 04:11:26;;;;;;;;;;;;;;;;;;5098414;28;19924;-76
2022/03/14 04:13:53;;;;;;;;;;;;;;;;;;5099735;28;19923;-77
2022/03/14 04:16:22;;;;;;;;;;;;;;;;;;5118886;27;19923;-76
2022/03/14 04:18:51;;;;;;;;;;;;;;;;;;5118978;28;19915;-77
2022/03/14 04:21:16;;;;;;;;;;;;;;;;;;5117714;28;19915;-77
2022/03/14 04:23:42;;;;;;;;;;;;;;;;;;5119263;27;19923;-77
2022/03/14 04:26:07;;;;;;;;;;;;;;;;;;5100140;28;19916;-77
2022/03/14 04:28:36;;;;;;;;;;;;;;;;;;5118354;28;19916;-77
2022/03/14 04:31:01;;;;;;;;;;;;;;;;;;5117907;28;19920;-77
2022/03/14 04:33:27;;;;;;;;;;;;;;;;;;5117969;28;19923;-76
2022/03/14 04:35:52;;;;;;;;;;;;;;;;;;5118392;28;20300;-77
2022/03/14 04:38:17;;;;;;;;;;;;;;;;;;5118062;28;19958;-77
2022/03/14 04:40:43;;;;;;;;;;;;;;;;;;5116870;28;19915;-77
2022/03/14 04:43:09;;;;;;;;;;;;;;;;;;5117643;28;20375;-77
2022/03/14 04:45:36;;;;;;;;;;;;;;;;;;5117655;28;19922;-77
2022/03/14 04:48:06;;;;;;;;;;;;;;;;;;5118064;28;20006;-77
2022/03/14 04:50:31;;;;;;;;;;;;;;;;;;5117827;28;19923;-76
2022/03/14 04:52:57;;;;;;;;;;;;;;;;;;5117866;28;19922;-77
2022/03/14 04:55:22;;;;;;;;;;;;;;;;;;5117483;28;19923;-77
2022/03/14 04:57:48;;;;;;;;;;;;;;;;;;5118032;28;19950;-77
2022/03/14 05:00:16;;;;;;;;;;;;;;;;;;5117692;28;19923;-77
2022/03/14 05:02:42;;;;;;;;;;;;;;;;;;5117176;28;19915;-77
2022/03/14 05:05:11;;;;;;;;;;;;;;;;;;5105374;28;20392;-77
2022/03/14 05:07:38;;;;;;;;;;;;;;;;;;5097521;28;19923;-78
2022/03/14 05:10:04;;;;;;;;;;;;;;;;;;5096847;28;19924;-77
2022/03/14 05:12:32;;;;;;;;;;;;;;;;;;5096778;28;19916;-77
2022/03/14 05:14:57;;;;;;;;;;;;;;;;;;5107297;28;20284;-77
2022/03/14 05:17:23;;;;;;;;;;;;;;;;;;5116683;28;19915;-77
2022/03/14 05:19:48;;;;;;;;;;;;;;;;;;5117227;28;20006;-77
2022/03/14 05:22:13;;;;;;;;;;;;;;;;;;5111056;28;19916;-76
2022/03/14 05:24:39;;;;;;;;;;;;;;;;;;5117203;27;19922;-77
2022/03/14 05:27:04;;;;;;;;;;;;;;;;;;5117112;28;20023;-77
2022/03/14 05:29:30;;;;;;;;;;;;;;;;;;5115932;28;19907;-77
2022/03/14 05:31:57;;;;;;;;;;;;;;;;;;5116476;27;20324;-77
2022/03/14 05:34:23;;;;;;;;;;;;;;;;;;5116883;28;19916;-76
2022/03/14 05:36:48;;;;;;;;;;;;;;;;;;5116958;28;19922;-77
2022/03/14 05:39:14;;;;;;;;;;;;;;;;;;5117199;28;19916;-76
2022/03/14 05:41:39;;;;;;;;;;;;;;;;;;5118303;28;19926;-76
2022/03/14 05:44:04;;;;;;;;;;;;;;;;;;5117067;28;19920;-76
2022/03/14 05:46:32;;;;;;;;;;;;;;;;;;5135740;27;20494;-76
2022/03/14 05:48:57;;;;;;;;;;;;;;;;;;5136222;27;20002;-76
2022/03/14 05:51:23;;;;;;;;;;;;;;;;;;5137540;27;19919;-76
2022/03/14 05:53:48;;;;;;;;;;;;;;;;;;5137660;27;20030;-77
2022/03/14 05:56:13;;;;;;;;;;;;;;;;;;5137318;27;19960;-76
2022/03/14 05:58:38;;;;;;;;;;;;;;;;;;5137671;27;19915;-77
2022/03/14 06:01:04;;;;;;;;;;;;;;;;;;5136917;27;20553;-76
2022/03/14 06:03:29;;;;;;;;;;;;;;;;;;5114855;27;19966;-77
2022/03/14 06:05:54;;;;;;;;;;;;;;;;;;5094490;28;19971;-76
2022/03/14 06:08:20;;;;;;;;;;;;;;;;;;5095036;28;19916;-78
2022/03/14 06:10:46;;;;;;;;;;;;;;;;;;5094350;28;19920;-77
2022/03/14 06:13:13;;;;;;;;;;;;;;;;;;5094930;28;19916;-77
2022/03/14 06:15:38;;;;;;;;;;;;;;;;;;5107849;28;19922;-77
2022/03/14 06:18:04;;;;;;;;;;;;;;;;;;5115648;28;19916;-77
2022/03/14 06:20:29;;;;;;;;;;;;;;;;;;5115901;28;19923;-78
2022/03/14 06:22:54;;;;;;;;;;;;;;;;;;5114229;28;19920;-77
2022/03/14 06:25:20;;;;;;;;;;;;;;;;;;5116507;28;19918;-77
2022/03/14 06:27:46;;;;;;;;;;;;;;;;;;5114766;28;19939;-77
2022/03/14 06:30:13;;;;;;;;;;;;;;;;;;5115383;28;20345;-76
2022/03/14 06:32:39;;;;;;;;;;;;;;;;;;5118837;28;19920;-77
2022/03/14 06:35:06;;;;;;;;;;;;;;;;;;5116146;28;19923;-75
2022/03/14 06:37:31;;;;;;;;;;;;;;;;;;5114364;28;20306;-75
2022/03/14 06:39:56;;;;;;;;;;;;;;;;;;5096397;28;20014;-76
2022/03/14 06:42:23;;;;;;;;;;;;;;;;;;5094133;28;20330;-76
2022/03/14 06:44:50;;;;;;;;;;;;;;;;;;5104036;27;19915;-75
2022/03/14 06:47:17;;;;;;;;;;;;;;;;;;5135445;27;19919;-75
2022/03/14 06:49:44;;;;;;;;;;;;;;;;;;5135526;27;19955;-75
2022/03/14 06:52:10;;;;;;;;;;;;;;;;;;5127584;27;20018;-75
2022/03/14 06:54:36;;;;;;;;;;;;;;;;;;5114925;28;19916;-75
2022/03/14 06:57:02;;;;;;;;;;;;;;;;;;5114758;28;19916;-76
2022/03/14 06:59:28;;;;;;;;;;;;;;;;;;5115156;28;19915;-75
2022/03/14 07:01:53;;;;;;;;;;;;;;;;;;5113515;28;19923;-76
2022/03/14 07:04:18;;;;;;;;;;;;;;;;;;5112231;28;19990;-76
2022/03/14 07:06:45;;;;;;;;;;;;;;;;;;5114769;28;20039;-76
2022/03/14 07:09:11;;;;;;;;;;;;;;;;;;5114272;28;19971;-75
2022/03/14 07:11:36;;;;;;;;;;;;;;;;;;5113241;28;19920;-78
2022/03/14 07:14:01;;;;;;;;;;;;;;;;;;5110924;28;20270;-74
2022/03/14 07:16:27;;;;;;;;;;;;;;;;;;5094219;28;19956;-75
2022/03/14 07:18:56;;;;;;;;;;;;;;;;;;5094578;28;19916;-76
2022/03/14 07:21:32;;;;;;;;;;;;;;;;;;5092950;28;19943;-76
2022/03/14 07:23:58;;;;;;;;;;;;;;;;;;5092441;28;19916;-77
2022/03/14 07:26:23;;;;;;;;;;;;;;;;;;5090603;28;20415;-76
2022/03/14 07:28:48;;;;;;;;;;;;;;;;;;5091994;28;19923;-76
2022/03/14 07:31:20;;;;;;;;;;;;;;;;;;5092583;28;20389;-77
2022/03/14 07:33:45;;;;;;;;;;;;;;;;;;5092562;28;20056;-78
2022/03/14 07:36:14;;;;;;;;;;;;;;;;;;5092837;28;19985;-76
2022/03/14 07:38:39;;;;;;;;;;;;;;;;;;5092229;28;19923;-76
2022/03/14 07:41:05;;;;;;;;;;;;;;;;;;5093977;28;19920;-76
2022/03/14 07:43:30;;;;;;;;;;;;;;;;;;5093915;28;19923;-76
2022/03/14 07:45:56;;;;;;;;;;;;;;;;;;5111473;28;19992;-75
2022/03/14 07:48:22;;;;;;;;;;;;;;;;;;5112579;28;20022;-77
2022/03/14 07:50:47;;;;;;;;;;;;;;;;;;5093731;28;20400;-77
2022/03/14 07:53:13;;;;;;;;;;;;;;;;;;5093068;28;19916;-77
2022/03/14 07:55:39;;;;;;;;;;;;;;;;;;5101022;28;19922;-76
2022/03/14 07:58:04;;;;;;;;;;;;;;;;;;5099197;28;20018;-76
2022/03/14 08:00:29;;;;;;;;;;;;;;;;;;5104932;28;19916;-77
2022/03/14 08:02:55;;;;;;;;;;;;;;;;;;5107953;28;20015;-77
2022/03/14 08:05:24;;;;;;;;;;;;;;;;;;5099149;28;19920;-77
2022/03/14 08:07:50;;;;;;;;;;;;;;;;;;5077869;28;19962;-77
2022/03/14 08:10:17;;;;;;;;;;;;;;;;;;5107802;28;19924;-77
2022/03/14 08:12:52;;;;;;;;;;;;;;;;;;5102886;28;19961;-78
2022/03/14 08:15:26;;;;;;;;;;;;;;;;;;5099767;28;19920;-78
2022/03/14 08:17:53;;;;;;;;;;;;;;;;;;5100190;28;19920;-77
2022/03/14 08:20:19;;;;;;;;;;;;;;;;;;5097598;28;19954;-78
2022/03/14 08:22:45;;;;;;;;;;;;;;;;;;5102794;28;19916;-77
2022/03/14 08:25:11;;;;;;;;;;;;;;;;;;5102691;28;20289;-78
2022/03/14 08:27:37;;;;;;;;;;;;;;;;;;5102109;28;19923;-77
2022/03/14 08:30:04;;;;;;;;;;;;;;;;;;5104221;28;19923;-77
2022/03/14 08:32:39;;;;;;;;;;;;;;;;;;5086728;28;19927;-77
2022/03/14 08:35:07;;;;;;;;;;;;;;;;;;5101887;28;20400;-77
2022/03/14 08:37:37;;;;;;;;;;;;;;;;;;5102527;28;19922;-77
2022/03/14 08:40:05;;;;;;;;;;;;;;;;;;5105718;28;19923;-77
2022/03/14 08:42:36;;;;;;;;;;;;;;;;;;5109344;28;19967;-77
2022/03/14 08:45:02;;;;;;;;;;;;;;;;;;5106540;28;20024;-78
2022/03/14 08:47:28;;;;;;;;;;;;;;;;;;5118499;28;20381;-78
2022/03/14 08:49:53;;;;;;;;;;;;;;;;;;5118369;27;19945;-77
2022/03/14 08:52:19;;;;;;;;;;;;;;;;;;5116278;28;19950;-78
2022/03/14 08:54:44;;;;;;;;;;;;;;;;;;5116417;28;20353;-78
2022/03/14 08:57:09;;;;;;;;;;;;;;;;;;5117282;28;19960;-78
2022/03/14 08:59:35;;;;;;;;;;;;;;;;;;5117445;28;19916;-78
2022/03/14 09:02:00;;;;;;;;;;;;;;;;;;5115727;28;20389;-78
2022/03/14 09:04:26;;;;;;;;;;;;;;;;;;5118046;28;19915;-78
2022/03/14 09:06:51;;;;;;;;;;;;;;;;;;5117483;28;19920;-78
2022/03/14 09:09:19;;;;;;;;;;;;;;;;;;5117345;28;19916;-78
2022/03/14 09:11:45;;;;;;;;;;;;;;;;;;5116670;28;20136;-77
2022/03/14 09:14:10;;;;;;;;;;;;;;;;;;5117278;28;20269;-78
2022/03/14 09:16:35;;;;;;;;;;;;;;;;;;5117401;27;19923;-78
2022/03/14 09:19:01;;;;;;;;;;;;;;;;;;5116809;27;19912;-78
2022/03/14 09:21:27;;;;;;;;;;;;;;;;;;5115825;28;19916;-78
2022/03/14 09:23:53;;;;;;;;;;;;;;;;;;5116918;28;19958;-78
2022/03/14 09:26:18;;;;;;;;;;;;;;;;;;5116910;28;19915;-78
2022/03/14 09:28:44;;;;;;;;;;;;;;;;;;5116794;28;19922;-79
2022/03/14 09:31:13;;;;;;;;;;;;;;;;;;5116542;28;19970;-78
2022/03/14 09:33:38;;;;;;;;;;;;;;;;;;5112200;28;19922;-78
2022/03/14 09:36:04;;;;;;;;;;;;;;;;;;5116842;28;19915;-78
2022/03/14 09:38:29;;;;;;;;;;;;;;;;;;5104561;28;19916;-77
2022/03/14 09:40:55;;;;;;;;;;;;;;;;;;5097363;28;19920;-78
2022/03/14 09:43:23;;;;;;;;;;;;;;;;;;5099409;27;19923;-78
2022/03/14 09:45:48;;;;;;;;;;;;;;;;;;5097168;28;20310;-78
2022/03/14 09:48:15;;;;;;;;;;;;;;;;;;5098369;28;20003;-80
2022/03/14 09:50:41;;;;;;;;;;;;;;;;;;5109461;28;19951;-79
2022/03/14 09:53:10;;;;;;;;;;;;;;;;;;5108851;28;19938;-79
2022/03/14 09:55:44;;;;;;;;;;;;;;;;;;5121049;28;19959;-81
2022/03/14 09:58:17;;;;;;;;;;;;;;;;;;5109192;28;19916;-84
2022/03/14 10:00:42;;;;;;;;;;;;;;;;;;5121869;28;19922;-82
2022/03/14 10:03:11;;;;;;;;;;;;;;;;;;5107032;28;19922;-82
2022/03/14 10:05:37;;;;;;;;;;;;;;;;;;5113198;28;19929;-83
2022/03/14 10:08:02;;;;;;;;;;;;;;;;;;5112759;28;19967;-83
2022/03/14 10:10:28;;;;;;;;;;;;;;;;;;5113188;28;19920;-84
2022/03/14 10:12:57;;;;;;;;;;;;;;;;;;5109217;28;19963;-79
2022/03/14 10:15:22;;;;;;;;;;;;;;;;;;5105961;27;20006;-78
2022/03/14 10:17:48;;;;;;;;;;;;;;;;;;5102797;28;19948;-78
2022/03/14 10:20:17;;;;;;;;;;;;;;;;;;5103956;28;19920;-78
2022/03/14 10:22:44;;;;;;;;;;;;;;;;;;5102451;28;20519;-78
2022/03/14 10:25:10;;;;;;;;;;;;;;;;;;5102030;28;20392;-78
2022/03/14 10:27:37;;;;;;;;;;;;;;;;;;5095399;28;20049;-78
2022/03/14 10:30:03;;;;;;;;;;;;;;;;;;5095668;28;19916;-78
2022/03/14 10:32:30;;;;;;;;;;;;;;;;;;5095140;28;20057;-78
2022/03/14 10:34:59;;;;;;;;;;;;;;;;;;5098513;28;19919;-79
2022/03/14 10:37:27;;;;;;;;;;;;;;;;;;5097903;28;20488;-79
2022/03/14 10:40:00;;;;;;;;;;;;;;;;;;5105888;28;19916;-79
2022/03/14 10:42:27;;;;;;;;;;;;;;;;;;5117594;28;19916;-81
2022/03/14 10:44:54;;;;;;;;;;;;;;;;;;5117446;28;19922;-76
2022/03/14 10:47:19;;;;;;;;;;;;;;;;;;5115743;28;19955;-79
2022/03/14 10:49:45;;;;;;;;;;;;;;;;;;5116392;27;19930;-81
2022/03/14 10:52:14;;;;;;;;;;;;;;;;;;5125350;27;21219;-82
2022/03/14 10:54:42;;;;;;;;;;;;;;;;;;5106651;28;20297;-82
2022/03/14 10:57:11;;;;;;;;;;;;;;;;;;5113160;28;19923;-82
2022/03/14 10:59:37;;;;;;;;;;;;;;;;;;5112754;28;19911;-83
2022/03/14 11:02:04;;;;;;;;;;;;;;;;;;5111748;28;19920;-82
2022/03/14 11:04:38;;;;;;;;;;;;;;;;;;5111645;28;19975;-82
2022/03/14 11:07:04;;;;;;;;;;;;;;;;;;5109967;28;19916;-81
2022/03/14 11:09:39;;;;;;;;;;;;;;;;;;5109444;28;20010;-81
2022/03/14 11:12:08;;;;;;;;;;;;;;;;;;5103390;28;19920;-81
2022/03/14 11:14:37;;;;;;;;;;;;;;;;;;5091563;28;19961;-83
2022/03/14 11:17:21;;;;;;;;;;;;;;;;;;5108970;28;19916;-82
2022/03/14 11:19:51;;;;;;;;;;;;;;;;;;5091200;28;19916;-82
2022/03/14 11:22:17;;;;;;;;;;;;;;;;;;5105258;28;20285;-79
2022/03/14 11:24:44;;;;;;;;;;;;;;;;;;5097777;28;19966;-80
2022/03/14 11:27:11;;;;;;;;;;;;;;;;;;5110395;28;20373;-80
2022/03/14 11:29:37;;;;;;;;;;;;;;;;;;5111695;28;19919;-76
2022/03/14 11:32:03;;;;;;;;;;;;;;;;;;5103237;28;20005;-78
2022/03/14 11:34:30;;;;;;;;;;;;;;;;;;5104660;28;19924;-78
2022/03/14 11:36:57;;;;;;;;;;;;;;;;;;5108374;28;19987;-77
2022/03/14 11:39:22;;;;;;;;;;;;;;;;;;5106966;28;19919;-81
2022/03/14 11:41:47;;;;;;;;;;;;;;;;;;5105718;28;19926;-82
2022/03/14 11:44:13;;;;;;;;;;;;;;;;;;5106816;28;19916;-81
2022/03/14 11:46:39;;;;;;;;;;;;;;;;;;5109159;28;19916;-80
2022/03/14 11:49:17;;;;;;;;;;;;;;;;;;5110245;28;19962;-79
2022/03/14 11:51:42;;;;;;;;;;;;;;;;;;5102881;28;19919;-79
2022/03/14 11:54:10;;;;;;;;;;;;;;;;;;5104091;28;20399;-77
2022/03/14 11:56:38;;;;;;;;;;;;;;;;;;5097548;28;19920;-77
2022/03/14 11:59:24;;;;;;;;;;;;;;;;;;5094713;28;19917;-78
2022/03/14 12:01:50;;;;;;;;;;;;;;;;;;5104359;28;19916;-77
2022/03/14 12:04:32;;;;;;;;;;;;;;;;;;5105044;28;19920;-77
2022/03/14 12:07:05;;;;;;;;;;;;;;;;;;5100307;28;19916;-77
2022/03/14 12:09:31;;;;;;;;;;;;;;;;;;5112141;28;19915;-77
2022/03/14 12:12:20;;;;;;;;;;;;;;;;;;5102318;28;19973;-78
2022/03/14 12:14:53;;;;;;;;;;;;;;;;;;5095797;28;19916;-78
2022/03/14 12:17:18;;;;;;;;;;;;;;;;;;5110344;28;19998;-78
2022/03/14 12:19:47;;;;;;;;;;;;;;;;;;5106720;28;19965;-77
2022/03/14 12:22:28;;;;;;;;;;;;;;;;;;5106056;28;19916;-77
2022/03/14 12:24:53;;;;;;;;;;;;;;;;;;5110469;28;19915;-77
2022/03/14 12:27:26;;;;;;;;;;;;;;;;;;5106387;28;20265;-76
2022/03/14 12:29:52;;;;;;;;;;;;;;;;;;5105973;28;19915;-77
2022/03/14 12:32:36;;;;;;;;;;;;;;;;;;5117139;28;19926;-78
2022/03/14 12:35:03;;;;;;;;;;;;;;;;;;5119641;27;19930;-78
2022/03/14 12:37:35;;;;;;;;;;;;;;;;;;5115486;27;19922;-77
2022/03/14 12:40:01;;;;;;;;;;;;;;;;;;5137510;27;19958;-77
2022/03/14 12:42:27;;;;;;;;;;;;;;;;;;5138080;27;19988;-77
2022/03/14 12:45:12;;;;;;;;;;;;;;;;;;5135395;27;19914;-78
2022/03/14 12:47:43;;;;;;;;;;;;;;;;;;5135614;27;19923;-78
2022/03/14 12:50:10;;;;;;;;;;;;;;;;;;5105156;27;19915;-78
2022/03/14 12:52:54;;;;;;;;;;;;;;;;;;5116942;27;19926;-78
2022/03/14 12:55:22;;;;;;;;;;;;;;;;;;5122763;27;20393;-78
2022/03/14 12:57:52;;;;;;;;;;;;;;;;;;5128269;27;19919;-76
2022/03/14 13:00:17;;;;;;;;;;;;;;;;;;5114651;27;19916;-76
2022/03/14 13:02:43;;;;;;;;;;;;;;;;;;5122156;27;19923;-76
2022/03/14 13:05:10;;;;;;;;;;;;;;;;;;5124519;27;21637;-78
2022/03/14 13:07:36;;;;;;;;;;;;;;;;;;5109476;27;20358;-78
2022/03/14 13:10:02;;;;;;;;;;;;;;;;;;5118516;27;20021;-78
2022/03/14 13:12:30;;;;;;;;;;;;;;;;;;5111986;27;19915;-78
2022/03/14 13:15:06;;;;;;;;;;;;;;;;;;5124090;27;20006;-77
2022/03/14 13:17:32;;;;;;;;;;;;;;;;;;5130909;27;20359;-78
2022/03/14 13:19:57;;;;;;;;;;;;;;;;;;5119878;27;19925;-77
2022/03/14 13:22:23;;;;;;;;;;;;;;;;;;5131015;27;19916;-78
2022/03/14 13:24:49;;;;;;;;;;;;;;;;;;5121043;27;19927;-77
2022/03/14 13:27:22;;;;;;;;;;;;;;;;;;5130359;27;19916;-78
2022/03/14 13:29:47;;;;;;;;;;;;;;;;;;5136969;27;19957;-77
2022/03/14 13:32:16;;;;;;;;;;;;;;;;;;5136708;27;19969;-78
2022/03/14 13:34:41;;;;;;;;;;;;;;;;;;5123912;27;19919;-79
2022/03/14 13:37:06;;;;;;;;;;;;;;;;;;5122931;27;20044;-77
2022/03/14 13:39:32;;;;;;;;;;;;;;;;;;5128465;27;19923;-77
2022/03/14 13:41:57;;;;;;;;;;;;;;;;;;5116181;28;19916;-77
2022/03/14 13:44:24;;;;;;;;;;;;;;;;;;5122461;27;19922;-77
2022/03/14 13:46:52;;;;;;;;;;;;;;;;;;5134480;27;19922;-78
2022/03/14 13:49:20;;;;;;;;;;;;;;;;;;5122894;27;19915;-78
2022/03/14 13:51:55;;;;;;;;;;;;;;;;;;5123436;27;20432;-76
2022/03/14 13:54:22;;;;;;;;;;;;;;;;;;5124891;27;20014;-77
2022/03/14 13:56:48;;;;;;;;;;;;;;;;;;5129860;27;19915;-77
2022/03/14 13:59:30;;;;;;;;;;;;;;;;;;5130885;27;19916;-76
2022/03/14 14:02:05;;;;;;;;;;;;;;;;;;5115764;28;19919;-77
2022/03/14 14:04:35;;;;;;;;;;;;;;;;;;5128127;27;20052;-77
2022/03/14 14:07:01;;;;;;;;;;;;;;;;;;5127705;27;19998;-77
2022/03/14 14:09:30;;;;;;;;;;;;;;;;;;5131048;27;20011;-78
2022/03/14 14:11:59;;;;;;;;;;;;;;;;;;5108064;27;20396;-76
2022/03/14 14:14:26;;;;;;;;;;;;;;;;;;5114812;27;20358;-77
2022/03/14 14:16:52;;;;;;;;;;;;;;;;;;5124418;27;19922;-77
2022/03/14 14:19:17;;;;;;;;;;;;;;;;;;5106201;27;19912;-77
2022/03/14 14:21:55;;;;;;;;;;;;;;;;;;5121626;27;20048;-78
2022/03/14 14:24:23;;;;;;;;;;;;;;;;;;5108801;27;19947;-77
2022/03/14 14:26:49;;;;;;;;;;;;;;;;;;5132051;27;19939;-77
2022/03/14 14:29:34;;;;;;;;;;;;;;;;;;5117058;27;19924;-78
2022/03/14 14:32:15;;;;;;;;;;;;;;;;;;5120831;27;19934;-78
2022/03/14 14:34:41;;;;;;;;;;;;;;;;;;5122522;27;19916;-77
2022/03/14 14:37:06;;;;;;;;;;;;;;;;;;5129073;27;19920;-77
2022/03/14 14:39:33;;;;;;;;;;;;;;;;;;5126424;27;19915;-78
2022/03/14 14:42:06;;;;;;;;;;;;;;;;;;5124683;27;20415;-79
2022/03/14 14:44:31;;;;;;;;;;;;;;;;;;5125292;27;19937;-78
2022/03/14 14:46:56;;;;;;;;;;;;;;;;;;5135756;27;20369;-77
2022/03/14 14:49:21;;;;;;;;;;;;;;;;;;5135052;27;20584;-78
2022/03/14 14:51:47;;;;;;;;;;;;;;;;;;5134226;27;20023;-78
2022/03/14 14:54:12;;;;;;;;;;;;;;;;;;5119580;27;19966;-78
2022/03/14 14:56:38;;;;;;;;;;;;;;;;;;5128073;27;19922;-78
2022/03/14 14:59:03;;;;;;;;;;;;;;;;;;5114525;27;20381;-77
2022/03/14 15:01:28;;;;;;;;;;;;;;;;;;5121582;27;19915;-77
2022/03/14 15:03:57;;;;;;;;;;;;;;;;;;5134727;27;19984;-77
2022/03/14 15:06:22;;;;;;;;;;;;;;;;;;5131221;27;19923;-78
2022/03/14 15:08:47;;;;;;;;;;;;;;;;;;5114573;28;20451;-77
2022/03/14 15:11:13;;;;;;;;;;;;;;;;;;5119044;27;19933;-79
2022/03/14 15:13:38;;;;;;;;;;;;;;;;;;5124942;27;19916;-78
2022/03/14 15:16:04;;;;;;;;;;;;;;;;;;5135094;27;20418;-77
2022/03/14 15:18:30;;;;;;;;;;;;;;;;;;5133297;27;19915;-77
2022/03/14 15:20:56;;;;;;;;;;;;;;;;;;5122524;27;19915;-77
2022/03/14 15:23:21;;;;;;;;;;;;;;;;;;5113597;28;19925;-77
2022/03/14 15:25:47;;;;;;;;;;;;;;;;;;5118979;27;19922;-77
2022/03/14 15:28:12;;;;;;;;;;;;;;;;;;5112922;27;19919;-77
2022/03/14 15:30:42;;;;;;;;;;;;;;;;;;5108849;27;19923;-77
2022/03/14 15:33:08;;;;;;;;;;;;;;;;;;5100948;27;19920;-78
2022/03/14 15:35:34;;;;;;;;;;;;;;;;;;5119719;27;19916;-78
2022/03/14 15:38:03;;;;;;;;;;;;;;;;;;5113623;27;19985;-79
2022/03/14 15:40:28;;;;;;;;;;;;;;;;;;5119972;27;20006;-78
2022/03/14 15:42:54;;;;;;;;;;;;;;;;;;5131038;27;20049;-78
2022/03/14 15:45:20;;;;;;;;;;;;;;;;;;5116915;27;19924;-78
2022/03/14 15:47:47;;;;;;;;;;;;;;;;;;5109578;27;19926;-77
2022/03/14 15:50:14;;;;;;;;;;;;;;;;;;5130167;27;20292;-77
2022/03/14 15:52:41;;;;;;;;;;;;;;;;;;5121621;27;19926;-78
2022/03/14 15:55:07;;;;;;;;;;;;;;;;;;5126620;28;19938;-78
2022/03/14 15:57:33;;;;;;;;;;;;;;;;;;5125592;27;20436;-77
2022/03/14 16:00:02;;;;;;;;;;;;;;;;;;5132339;28;19938;-78
2022/03/14 16:02:37;;;;;;;;;;;;;;;;;;5120251;28;20269;-78
2022/03/14 16:05:03;;;;;;;;;;;;;;;;;;5127145;27;19915;-78
2022/03/14 16:07:29;;;;;;;;;;;;;;;;;;5122170;28;20376;-77
2022/03/14 16:09:56;;;;;;;;;;;;;;;;;;5126654;28;20002;-77
2022/03/14 16:12:21;;;;;;;;;;;;;;;;;;5117515;27;19961;-77
2022/03/14 16:14:47;;;;;;;;;;;;;;;;;;5122065;27;19920;-77
2022/03/14 16:17:12;;;;;;;;;;;;;;;;;;5134427;27;20373;-77
2022/03/14 16:19:40;;;;;;;;;;;;;;;;;;5121535;27;19966;-76
2022/03/14 16:22:06;;;;;;;;;;;;;;;;;;5113022;28;19946;-78
2022/03/14 16:24:31;;;;;;;;;;;;;;;;;;5134294;27;19941;-77
2022/03/14 16:26:58;;;;;;;;;;;;;;;;;;5122025;27;19915;-78
2022/03/14 16:29:24;;;;;;;;;;;;;;;;;;5128505;27;19922;-78
2022/03/14 16:31:50;;;;;;;;;;;;;;;;;;5114854;28;19928;-78
2022/03/14 16:34:16;;;;;;;;;;;;;;;;;;5124735;28;19926;-78
2022/03/14 16:36:42;;;;;;;;;;;;;;;;;;5126612;28;19922;-78
2022/03/14 16:39:07;;;;;;;;;;;;;;;;;;5123035;28;19915;-77
2022/03/14 16:41:33;;;;;;;;;;;;;;;;;;5132672;28;19984;-78
2022/03/14 16:44:00;;;;;;;;;;;;;;;;;;5113776;28;19916;-78